createdAt,value
2017-11-21T00:00:52.215Z,22.93
2017-11-21T00:03:19.810Z,24.50
2017-11-21T00:05:47.905Z,34.40
2017-11-21T00:08:15.962Z,27.90
2017-11-21T00:10:44.048Z,37.23
2017-11-21T00:13:12.086Z,28.43
2017-11-21T00:15:39.993Z,27.73
2017-11-21T00:18:07.493Z,25.13
2017-11-21T00:20:35.703Z,24.20
2017-11-21T00:23:04.094Z,23.27
2017-11-21T00:25:32.149Z,23.40
2017-11-21T00:28:00.218Z,23.70
2017-11-21T00:30:28.302Z,23.77
2017-11-21T00:32:57.648Z,23.80
2017-11-21T00:35:25.671Z,22.07
2017-11-21T00:37:54.138Z,23.63
2017-11-21T00:40:21.636Z,24.17
2017-11-21T00:42:49.892Z,22.33
2017-11-21T00:45:17.964Z,23.27
2017-11-21T00:47:46.034Z,23.83
2017-11-21T00:50:14.101Z,24.20
2017-11-21T00:52:42.175Z,22.83
2017-11-21T00:55:10.852Z,23.30
2017-11-21T00:57:38.935Z,22.30
2017-11-21T01:00:06.937Z,22.90
2017-11-21T01:02:35.358Z,22.93
2017-11-21T01:05:04.180Z,21.43
2017-11-21T01:07:33.031Z,22.77
2017-11-21T01:10:01.889Z,23.50
2017-11-21T01:12:30.951Z,22.50
2017-11-21T01:15:00.157Z,22.73
2017-11-21T01:17:27.889Z,21.03
2017-11-21T01:19:55.395Z,23.33
2017-11-21T01:22:23.088Z,23.80
2017-11-21T01:24:51.086Z,22.90
2017-11-21T01:27:19.149Z,21.83
2017-11-21T01:29:47.229Z,22.60
2017-11-21T01:32:15.617Z,22.20
2017-11-21T01:34:43.572Z,25.70
2017-11-21T01:37:12.467Z,29.30
2017-11-21T01:39:40.429Z,30.10
2017-11-21T01:42:08.697Z,24.17
2017-11-21T01:44:37.163Z,23.10
2017-11-21T01:47:05.278Z,22.37
2017-11-21T01:49:33.248Z,35.23
2017-11-21T01:52:02.011Z,22.70
2017-11-21T01:54:30.266Z,25.30
2017-11-21T01:56:58.864Z,22.90
2017-11-21T01:59:27.447Z,22.10
2017-11-21T02:01:56.143Z,23.43
2017-11-21T02:04:24.385Z,24.63
2017-11-21T02:06:52.593Z,29.77
2017-11-21T02:09:22.660Z,25.50
2017-11-21T02:11:51.016Z,24.13
2017-11-21T02:14:19.367Z,22.13
2017-11-21T02:16:46.877Z,20.80
2017-11-21T02:19:15.093Z,22.10
2017-11-21T02:21:44.344Z,22.77
2017-11-21T02:24:11.908Z,24.03
2017-11-21T02:26:39.915Z,23.20
2017-11-21T02:29:07.424Z,20.97
2017-11-21T02:31:34.977Z,23.90
2017-11-21T02:34:02.484Z,22.20
2017-11-21T02:36:29.994Z,20.53
2017-11-21T02:38:57.506Z,19.97
2017-11-21T02:41:25.803Z,19.27
2017-11-21T02:43:54.078Z,20.53
2017-11-21T02:46:21.585Z,19.50
2017-11-21T02:48:49.111Z,21.30
2017-11-21T02:51:17.389Z,19.97
2017-11-21T02:53:44.914Z,19.27
2017-11-21T02:56:12.418Z,19.50
2017-11-21T02:58:40.027Z,19.67
2017-11-21T03:01:07.774Z,18.33
2017-11-21T03:03:35.269Z,20.27
2017-11-21T03:06:03.005Z,19.63
2017-11-21T03:08:30.749Z,19.20
2017-11-21T03:10:58.508Z,19.37
2017-11-21T03:13:26.301Z,17.90
2017-11-21T03:15:53.797Z,19.00
2017-11-21T03:18:21.304Z,18.80
2017-11-21T03:21:00.674Z,17.73
2017-11-21T03:23:40.346Z,16.77
2017-11-21T03:26:17.725Z,17.67
2017-11-21T03:28:45.237Z,18.27
2017-11-21T03:31:12.758Z,17.57
2017-11-21T03:33:40.281Z,18.17
2017-11-21T03:36:07.777Z,18.67
2017-11-21T03:38:35.287Z,17.70
2017-11-21T03:41:03.443Z,19.47
2017-11-21T03:43:30.964Z,18.57
2017-11-21T03:45:58.545Z,20.20
2017-11-21T03:48:26.084Z,20.23
2017-11-21T03:50:53.577Z,18.10
2017-11-21T03:53:21.933Z,18.93
2017-11-21T03:55:49.434Z,19.27
2017-11-21T03:58:17.724Z,18.37
2017-11-21T04:00:46.038Z,18.90
2017-11-21T04:03:13.805Z,18.40
2017-11-21T04:05:41.569Z,17.87
2017-11-21T04:08:09.080Z,18.70
2017-11-21T04:10:36.801Z,18.17
2017-11-21T04:13:04.309Z,19.00
2017-11-21T04:15:31.870Z,18.23
2017-11-21T04:17:59.382Z,18.80
2017-11-21T04:20:26.892Z,19.73
2017-11-21T04:22:54.404Z,21.03
2017-11-21T04:25:22.418Z,19.33
2017-11-21T04:27:49.930Z,17.67
2017-11-21T04:30:17.441Z,18.87
2017-11-21T04:32:44.938Z,18.83
2017-11-21T04:35:12.458Z,18.03
2017-11-21T04:37:39.956Z,19.63
2017-11-21T04:40:07.462Z,20.97
2017-11-21T04:42:35.040Z,20.00
2017-11-21T04:45:02.709Z,21.27
2017-11-21T04:47:30.243Z,21.50
2017-11-21T04:49:57.934Z,20.43
2017-11-21T04:52:25.449Z,20.30
2017-11-21T04:54:52.951Z,21.67
2017-11-21T04:57:20.473Z,20.33
2017-11-21T04:59:47.982Z,23.40
2017-11-21T05:02:15.497Z,20.60
2017-11-21T05:04:43.021Z,20.77
2017-11-21T05:07:10.735Z,19.63
2017-11-21T05:09:38.253Z,19.53
2017-11-21T05:12:05.758Z,21.00
2017-11-21T05:14:33.264Z,21.97
2017-11-21T05:17:01.770Z,20.73
2017-11-21T05:19:29.280Z,21.93
2017-11-21T05:21:56.813Z,23.07
2017-11-21T05:24:24.323Z,21.00
2017-11-21T05:26:52.588Z,21.70
2017-11-21T05:29:20.193Z,20.30
2017-11-21T05:31:47.765Z,21.10
2017-11-21T05:34:15.277Z,19.77
2017-11-21T05:36:42.813Z,22.50
2017-11-21T05:39:10.496Z,21.73
2017-11-21T05:41:38.002Z,20.70
2017-11-21T05:44:05.497Z,22.80
2017-11-21T05:46:34.072Z,20.20
2017-11-21T05:49:01.838Z,20.13
2017-11-21T05:51:29.373Z,21.00
2017-11-21T05:53:56.873Z,20.03
2017-11-21T05:56:24.376Z,19.77
2017-11-21T05:58:52.237Z,17.93
2017-11-21T06:01:19.767Z,18.67
2017-11-21T06:03:47.280Z,19.03
2017-11-21T06:06:14.795Z,18.73
2017-11-21T06:08:42.312Z,17.60
2017-11-21T06:11:09.824Z,20.70
2017-11-21T06:13:37.364Z,19.63
2017-11-21T06:16:04.905Z,20.00
2017-11-21T06:18:32.420Z,18.20
2017-11-21T06:21:00.776Z,19.47
2017-11-21T06:23:28.378Z,20.30
2017-11-21T06:25:56.112Z,20.60
2017-11-21T06:28:23.608Z,19.13
2017-11-21T06:30:51.188Z,19.27
2017-11-21T06:33:18.690Z,20.37
2017-11-21T06:35:46.202Z,20.90
2017-11-21T06:38:13.997Z,21.53
2017-11-21T06:40:41.773Z,20.20
2017-11-21T06:43:09.542Z,19.20
2017-11-21T06:45:37.045Z,20.57
2017-11-21T06:48:04.600Z,20.83
2017-11-21T06:50:32.864Z,19.13
2017-11-21T06:53:00.611Z,21.87
2017-11-21T06:55:28.397Z,20.23
2017-11-21T06:57:55.921Z,20.57
2017-11-21T07:00:23.749Z,21.50
2017-11-21T07:02:51.329Z,21.27
2017-11-21T07:05:18.839Z,22.30
2017-11-21T07:07:46.549Z,21.97
2017-11-21T07:10:14.061Z,21.67
2017-11-21T07:12:42.107Z,20.93
2017-11-21T07:15:09.605Z,22.77
2017-11-21T07:17:37.111Z,20.30
2017-11-21T07:20:04.671Z,22.00
2017-11-21T07:22:32.173Z,19.87
2017-11-21T07:24:59.683Z,20.30
2017-11-21T07:27:27.245Z,21.10
2017-11-21T07:29:54.893Z,21.37
2017-11-21T07:32:22.404Z,21.93
2017-11-21T07:34:49.912Z,21.90
2017-11-21T07:37:17.561Z,21.17
2017-11-21T07:39:45.336Z,21.33
2017-11-21T07:42:14.024Z,20.67
2017-11-21T07:44:41.506Z,22.23
2017-11-21T07:47:09.063Z,19.73
2017-11-21T07:49:37.330Z,18.63
2017-11-21T07:52:05.611Z,19.33
2017-11-21T07:54:33.122Z,19.37
2017-11-21T07:57:00.713Z,19.43
2017-11-21T07:59:28.365Z,19.33
2017-11-21T08:01:55.886Z,20.20
2017-11-21T08:04:23.407Z,17.17
2017-11-21T08:06:50.899Z,17.80
2017-11-21T08:09:18.441Z,16.93
2017-11-21T08:11:45.965Z,18.40
2017-11-21T08:14:13.501Z,16.67
2017-11-21T08:16:40.997Z,17.80
2017-11-21T08:19:09.422Z,19.27
2017-11-21T08:21:36.955Z,18.73
2017-11-21T08:24:04.456Z,18.20
2017-11-21T08:26:31.969Z,17.50
2017-11-21T08:28:59.690Z,18.97
2017-11-21T08:31:27.475Z,18.77
2017-11-21T08:33:55.000Z,18.40
2017-11-21T08:36:22.711Z,17.97
2017-11-21T08:38:50.213Z,18.57
2017-11-21T08:41:17.735Z,18.30
2017-11-21T08:43:46.001Z,18.63
2017-11-21T08:46:13.714Z,17.77
2017-11-21T08:48:41.236Z,18.23
2017-11-21T08:51:08.740Z,18.30
2017-11-21T08:53:36.761Z,18.37
2017-11-21T08:56:04.251Z,20.57
2017-11-21T08:58:31.779Z,17.70
2017-11-21T09:00:59.482Z,19.23
2017-11-21T09:03:27.011Z,20.33
2017-11-21T09:05:54.517Z,20.07
2017-11-21T09:08:22.858Z,19.77
2017-11-21T09:10:50.387Z,20.07
2017-11-21T09:13:18.420Z,20.33
2017-11-21T09:15:45.908Z,19.83
2017-11-21T09:18:13.511Z,19.17
2017-11-21T09:20:41.501Z,18.57
2017-11-21T09:23:09.484Z,19.20
2017-11-21T09:25:38.216Z,18.40
2017-11-21T09:28:05.806Z,17.87
2017-11-21T09:30:33.304Z,18.20
2017-11-21T09:33:00.810Z,17.63
2017-11-21T09:35:28.329Z,17.13
2017-11-21T09:37:55.941Z,17.30
2017-11-21T09:40:23.449Z,16.53
2017-11-21T09:42:51.175Z,17.10
2017-11-21T09:45:18.684Z,16.57
2017-11-21T09:47:46.182Z,16.77
2017-11-21T09:50:13.705Z,16.77
2017-11-21T09:52:41.281Z,16.87
2017-11-21T09:55:08.787Z,18.13
2017-11-21T09:57:36.334Z,19.53
2017-11-21T10:00:04.757Z,22.90
2017-11-21T10:02:32.344Z,16.70
2017-11-21T10:04:59.872Z,17.10
2017-11-21T10:07:27.572Z,15.13
2017-11-21T10:09:56.012Z,17.87
2017-11-21T10:12:23.709Z,15.53
2017-11-21T10:14:51.217Z,15.37
2017-11-21T10:17:18.725Z,15.17
2017-11-21T10:19:46.697Z,22.27
2017-11-21T10:22:14.215Z,16.13
2017-11-21T10:24:41.743Z,15.50
2017-11-21T10:27:10.039Z,18.10
2017-11-21T10:29:37.584Z,16.87
2017-11-21T10:32:05.925Z,16.73
2017-11-21T10:34:33.557Z,18.70
2017-11-21T10:37:01.082Z,17.90
2017-11-21T10:39:28.725Z,17.83
2017-11-21T10:41:57.940Z,17.43
2017-11-21T10:44:26.204Z,18.10
2017-11-21T10:46:53.719Z,17.27
2017-11-21T10:49:22.022Z,19.00
2017-11-21T10:51:49.513Z,19.73
2017-11-21T10:54:17.213Z,19.80
2017-11-21T10:56:44.738Z,18.60
2017-11-21T10:59:12.249Z,18.20
2017-11-21T11:01:39.740Z,18.00
2017-11-21T11:04:07.259Z,18.03
2017-11-21T11:06:34.765Z,16.20
2017-11-21T11:09:02.281Z,18.10
2017-11-21T11:11:29.783Z,17.37
2017-11-21T11:13:57.480Z,18.23
2017-11-21T11:16:24.984Z,16.27
2017-11-21T11:18:52.511Z,18.10
2017-11-21T11:21:19.998Z,17.90
2017-11-21T11:23:48.264Z,16.70
2017-11-21T11:26:16.016Z,20.63
2017-11-21T11:28:43.530Z,17.97
2017-11-21T11:31:11.026Z,16.63
2017-11-21T11:33:38.565Z,20.97
2017-11-21T11:36:06.049Z,16.33
2017-11-21T11:38:33.567Z,17.17
2017-11-21T11:41:01.056Z,16.20
2017-11-21T11:43:28.567Z,15.10
2017-11-21T11:45:56.075Z,13.57
2017-11-21T11:48:23.582Z,16.00
2017-11-21T11:50:51.092Z,15.60
2017-11-21T11:53:18.616Z,13.87
2017-11-21T11:55:46.148Z,14.73
2017-11-21T11:58:14.030Z,16.00
2017-11-21T12:00:41.655Z,17.10
2017-11-21T12:03:09.193Z,17.00
2017-11-21T12:05:36.698Z,16.07
2017-11-21T12:08:04.798Z,14.97
2017-11-21T12:10:32.732Z,15.57
2017-11-21T12:13:00.430Z,17.17
2017-11-21T12:15:28.109Z,18.07
2017-11-21T12:17:55.659Z,15.07
2017-11-21T12:20:23.179Z,17.07
2017-11-21T12:22:50.688Z,18.00
2017-11-21T12:25:18.192Z,15.73
2017-11-21T12:27:45.752Z,14.47
2017-11-21T12:30:13.249Z,14.90
2017-11-21T12:32:40.960Z,13.60
2017-11-21T12:35:08.491Z,17.40
2017-11-21T12:37:36.035Z,17.17
2017-11-21T12:40:03.566Z,13.70
2017-11-21T12:42:31.149Z,16.33
2017-11-21T12:44:58.654Z,16.33
2017-11-21T12:47:26.965Z,16.53
2017-11-21T12:49:54.489Z,17.77
2017-11-21T12:52:22.041Z,17.30
2017-11-21T12:54:50.321Z,16.50
2017-11-21T12:57:17.902Z,17.50
2017-11-21T12:59:46.182Z,17.70
2017-11-21T13:02:13.801Z,19.77
2017-11-21T13:04:41.318Z,20.27
2017-11-21T13:07:09.118Z,17.53
2017-11-21T13:09:36.862Z,15.93
2017-11-21T13:12:04.601Z,15.87
2017-11-21T13:14:32.380Z,13.80
2017-11-21T13:16:59.872Z,13.20
2017-11-21T13:19:27.405Z,14.53
2017-11-21T13:21:55.090Z,13.53
2017-11-21T13:24:22.631Z,13.70
2017-11-21T13:26:50.166Z,14.03
2017-11-21T13:29:17.721Z,14.00
2017-11-21T13:31:45.605Z,13.80
2017-11-21T13:34:13.147Z,14.33
2017-11-21T13:36:40.679Z,13.50
2017-11-21T13:39:08.489Z,12.80
2017-11-21T13:41:36.186Z,13.77
2017-11-21T13:44:03.993Z,12.47
2017-11-21T13:46:31.761Z,14.93
2017-11-21T13:48:59.530Z,13.30
2017-11-21T13:51:27.041Z,11.43
2017-11-21T13:53:54.536Z,12.10
2017-11-21T13:56:22.040Z,11.83
2017-11-21T13:58:50.492Z,12.60
2017-11-21T14:01:18.119Z,12.63
2017-11-21T14:03:45.726Z,11.93
2017-11-21T14:06:13.298Z,11.97
2017-11-21T14:08:41.954Z,11.97
2017-11-21T14:11:09.475Z,12.87
2017-11-21T14:13:36.999Z,13.33
2017-11-21T14:16:05.377Z,12.90
2017-11-21T14:18:33.666Z,12.87
2017-11-21T14:21:01.177Z,14.30
2017-11-21T14:23:28.714Z,13.00
2017-11-21T14:25:56.263Z,11.60
2017-11-21T14:28:23.829Z,12.70
2017-11-21T14:30:51.517Z,12.60
2017-11-21T14:33:19.509Z,11.57
2017-11-21T14:35:47.121Z,13.07
2017-11-21T14:38:14.814Z,12.30
2017-11-21T14:40:42.626Z,12.20
2017-11-21T14:43:10.329Z,11.53
2017-11-21T14:45:37.953Z,11.40
2017-11-21T14:48:05.583Z,11.13
2017-11-21T14:50:33.092Z,13.13
2017-11-21T14:53:00.633Z,13.57
2017-11-21T14:55:28.220Z,15.23
2017-11-21T14:57:55.747Z,16.77
2017-11-21T15:00:23.464Z,16.63
2017-11-21T15:02:50.945Z,17.23
2017-11-21T15:05:18.466Z,17.30
2017-11-21T15:07:46.091Z,18.00
2017-11-21T15:10:13.669Z,14.87
2017-11-21T15:12:41.200Z,16.97
2017-11-21T15:15:08.781Z,15.27
2017-11-21T15:17:36.310Z,17.13
2017-11-21T15:20:03.852Z,15.00
2017-11-21T15:22:32.389Z,14.80
2017-11-21T15:24:59.903Z,15.13
2017-11-21T15:27:27.445Z,13.73
2017-11-21T15:29:56.421Z,15.67
2017-11-21T15:32:23.917Z,14.80
2017-11-21T15:34:51.529Z,13.50
2017-11-21T15:37:19.106Z,13.63
2017-11-21T15:39:46.664Z,13.27
2017-11-21T15:42:14.255Z,13.37
2017-11-21T15:44:41.957Z,13.53
2017-11-21T15:47:09.494Z,14.10
2017-11-21T15:49:37.066Z,14.67
2017-11-21T15:52:04.618Z,13.70
2017-11-21T15:54:32.185Z,12.70
2017-11-21T15:56:59.709Z,14.73
2017-11-21T15:59:27.370Z,12.73
2017-11-21T16:01:55.095Z,14.70
2017-11-21T16:04:22.773Z,14.80
2017-11-21T16:06:50.342Z,14.37
2017-11-21T16:09:18.048Z,16.40
2017-11-21T16:11:45.575Z,15.27
2017-11-21T16:14:13.092Z,16.10
2017-11-21T16:16:40.637Z,15.53
2017-11-21T16:19:08.337Z,15.70
2017-11-21T16:21:37.237Z,14.77
2017-11-21T16:24:04.828Z,11.77
2017-11-21T16:26:32.405Z,12.17
2017-11-21T16:28:59.961Z,11.63
2017-11-21T16:31:27.522Z,12.87
2017-11-21T16:33:55.722Z,12.23
2017-11-21T16:36:23.299Z,13.77
2017-11-21T16:38:51.561Z,14.73
2017-11-21T16:41:19.070Z,15.47
2017-11-21T16:43:46.578Z,13.50
2017-11-21T16:46:15.129Z,14.90
2017-11-21T16:48:42.982Z,14.10
2017-11-21T16:51:10.477Z,12.70
2017-11-21T16:53:38.758Z,13.67
2017-11-21T16:56:06.664Z,12.47
2017-11-21T16:58:34.765Z,12.63
2017-11-21T17:01:02.396Z,11.67
2017-11-21T17:03:30.072Z,11.43
2017-11-21T17:05:57.705Z,10.00
2017-11-21T17:08:26.025Z,11.33
2017-11-21T17:10:53.530Z,18.33
2017-11-21T17:13:22.057Z,13.03
2017-11-21T17:15:49.639Z,10.43
2017-11-21T17:18:17.161Z,22.10
2017-11-21T17:20:44.754Z,10.50
2017-11-21T17:23:12.302Z,9.03
2017-11-21T17:25:39.815Z,9.40
2017-11-21T17:28:07.380Z,10.27
2017-11-21T17:30:34.876Z,9.07
2017-11-21T17:33:02.438Z,9.30
2017-11-21T17:35:30.021Z,20.83
2017-11-21T17:37:57.543Z,13.53
2017-11-21T17:40:25.342Z,10.07
2017-11-21T17:42:53.068Z,9.80
2017-11-21T17:45:20.668Z,11.60
2017-11-21T17:47:48.941Z,10.83
2017-11-21T17:50:16.472Z,10.90
2017-11-21T17:52:43.995Z,10.00
2017-11-21T17:55:11.489Z,11.50
2017-11-21T17:57:39.050Z,10.50
2017-11-21T18:00:06.570Z,10.77
2017-11-21T18:02:34.057Z,11.93
2017-11-21T18:05:01.561Z,10.57
2017-11-21T18:07:29.093Z,12.73
2017-11-21T18:09:56.633Z,14.10
2017-11-21T18:12:24.945Z,11.10
2017-11-21T18:14:52.985Z,10.33
2017-11-21T18:17:20.540Z,10.70
2017-11-21T18:25:45.115Z,11.77
2017-11-21T18:28:12.873Z,10.90
2017-11-21T18:30:40.650Z,10.93
2017-11-21T18:33:08.165Z,10.17
2017-11-21T18:35:35.672Z,10.10
2017-11-21T18:38:03.322Z,10.87
2017-11-21T18:40:30.827Z,10.07
2017-11-21T18:42:58.321Z,8.70
2017-11-21T18:45:25.997Z,9.00
2017-11-21T18:47:53.492Z,7.90
2017-11-21T18:50:26.892Z,9.97
2017-11-21T18:52:55.157Z,10.07
2017-11-21T18:55:22.899Z,10.20
2017-11-21T18:57:50.653Z,11.00
2017-11-21T19:00:18.413Z,8.93
2017-11-21T19:02:45.912Z,9.70
2017-11-21T19:05:13.634Z,11.80
2017-11-21T19:07:41.505Z,9.90
2017-11-21T19:10:09.157Z,9.10
2017-11-21T19:12:36.672Z,10.40
2017-11-21T19:15:04.263Z,11.07
2017-11-21T19:17:31.822Z,9.67
2017-11-21T19:19:59.348Z,18.33
2017-11-21T19:22:26.861Z,11.50
2017-11-21T19:24:54.356Z,10.23
2017-11-21T19:27:22.620Z,8.50
2017-11-21T19:29:50.137Z,12.20
2017-11-21T19:32:17.794Z,10.47
2017-11-21T19:34:45.302Z,15.30
2017-11-21T19:37:12.809Z,10.80
2017-11-21T19:39:40.329Z,9.70
2017-11-21T19:42:08.850Z,9.47
2017-11-21T19:44:36.491Z,9.50
2017-11-21T19:47:03.982Z,9.37
2017-11-21T19:49:31.530Z,10.13
2017-11-21T19:51:59.030Z,9.70
2017-11-21T19:54:26.528Z,8.60
2017-11-21T19:56:54.165Z,10.50
2017-11-21T19:59:21.674Z,7.13
2017-11-21T20:01:49.173Z,8.20
2017-11-21T20:04:17.467Z,8.70
2017-11-21T20:06:45.176Z,7.13
2017-11-21T20:09:12.686Z,8.03
2017-11-21T20:11:40.216Z,8.27
2017-11-21T20:14:07.706Z,8.50
2017-11-21T20:16:35.200Z,6.40
2017-11-21T20:19:02.725Z,8.90
2017-11-21T20:21:30.231Z,6.73
2017-11-21T20:23:57.739Z,7.17
2017-11-21T20:26:25.238Z,7.50
2017-11-21T20:28:52.753Z,7.33
2017-11-21T20:31:20.246Z,6.57
2017-11-21T20:33:47.753Z,7.67
2017-11-21T20:36:15.344Z,7.43
2017-11-21T20:38:42.841Z,6.67
2017-11-21T20:41:10.377Z,7.83
2017-11-21T20:43:37.870Z,7.37
2017-11-21T20:46:06.148Z,8.03
2017-11-21T20:48:33.817Z,6.70
2017-11-21T20:51:01.330Z,7.00
2017-11-21T20:53:28.830Z,7.27
2017-11-21T20:55:56.350Z,6.90
2017-11-21T20:58:23.845Z,6.10
2017-11-21T21:00:51.350Z,6.27
2017-11-21T21:03:18.855Z,7.20
2017-11-21T21:05:46.363Z,7.40
2017-11-21T21:08:14.121Z,6.20
2017-11-21T21:10:41.615Z,5.93
2017-11-21T21:13:09.121Z,5.73
2017-11-21T21:15:36.610Z,6.40
2017-11-21T21:18:04.257Z,5.77
2017-11-21T21:20:32.021Z,6.00
2017-11-21T21:22:59.526Z,6.10
2017-11-21T21:25:27.034Z,6.20
2017-11-21T21:28:00.324Z,6.27
2017-11-21T21:30:27.818Z,5.10
2017-11-21T21:32:55.675Z,5.73
2017-11-21T21:35:23.209Z,6.10
2017-11-21T21:37:50.717Z,6.47
2017-11-21T21:40:18.214Z,7.17
2017-11-21T21:42:45.709Z,6.20
2017-11-21T21:45:13.229Z,6.10
2017-11-21T21:47:40.832Z,6.17
2017-11-21T21:50:08.320Z,5.80
2017-11-21T21:52:35.828Z,5.53
2017-11-21T21:55:03.326Z,6.87
2017-11-21T21:57:31.595Z,6.60
2017-11-21T21:59:59.093Z,5.80
2017-11-21T22:02:27.097Z,5.30
2017-11-21T22:04:54.598Z,5.10
2017-11-21T22:07:22.256Z,5.20
2017-11-21T22:09:49.765Z,4.60
2017-11-21T22:12:17.270Z,5.40
2017-11-21T22:14:44.777Z,6.00
2017-11-21T22:17:12.434Z,6.33
2017-11-21T22:19:39.941Z,5.43
2017-11-21T22:22:07.446Z,6.47
2017-11-21T22:24:34.946Z,6.17
2017-11-21T22:27:04.009Z,5.43
2017-11-21T22:29:31.556Z,6.53
2017-11-21T22:31:59.052Z,4.70
2017-11-21T22:34:27.064Z,5.60
2017-11-21T22:36:54.560Z,4.67
2017-11-21T22:39:22.310Z,5.37
2017-11-21T22:41:49.790Z,5.33
2017-11-21T22:44:17.291Z,6.20
2017-11-21T22:46:44.790Z,6.20
2017-11-21T22:49:12.281Z,6.17
2017-11-21T22:51:40.853Z,7.70
2017-11-21T22:54:09.237Z,6.67
2017-11-21T22:56:37.364Z,5.80
2017-11-21T22:59:04.867Z,4.97
2017-11-21T23:01:33.166Z,7.20
2017-11-21T23:04:00.651Z,6.30
2017-11-21T23:06:28.296Z,6.13
2017-11-21T23:08:55.785Z,5.77
2017-11-21T23:11:23.285Z,5.40
2017-11-21T23:13:50.802Z,4.83
2017-11-21T23:16:18.307Z,6.37
2017-11-21T23:18:45.808Z,6.13
2017-11-21T23:21:13.379Z,5.90
2017-11-21T23:23:40.869Z,6.13
2017-11-21T23:26:08.382Z,6.13
2017-11-21T23:28:35.888Z,5.20
2017-11-21T23:31:03.389Z,6.53
2017-11-21T23:33:30.890Z,5.60
2017-11-21T23:35:58.411Z,6.13
2017-11-21T23:38:25.913Z,5.90
2017-11-21T23:40:54.508Z,6.50
2017-11-21T23:43:22.001Z,5.80
2017-11-21T23:45:49.505Z,5.27
2017-11-21T23:48:17.845Z,4.83
2017-11-21T23:50:45.341Z,6.83
2017-11-21T23:53:12.833Z,4.43
2017-11-21T23:55:40.330Z,5.53
2017-11-21T23:58:07.971Z,5.20
